Flight Track Log - Related Links

Times and Time Zones

All times are in EDT time to prevent confusion due to time zone crossing. See the FLG4274 flight status page for this flight to view local times or setup timezone preferences in your user account.

Time Position Orientation Groundspeed Altitude Reporting Facility
EDT Latitude Longitude Course Direction KTS MPH feet Rate Location/Type
Mon 12:25:06 PM 42.1994 -83.3581 292° West 151 174 1,300  Level Cleveland Center
Mon 12:26:14 PM 42.1650 -83.4097 228° Southwest 200 230 3,200 1,600 Climbing Cleveland Center
Mon 12:27:21 PM 42.1150 -83.4831 227° Southwest 260 299 4,900 2,016 Climbing Cleveland Center
Mon 12:28:00 PM 42.3347 -83.8767 292° West  Level FlightAware Approximate
Mon 12:28:22 PM 42.1108 -83.5697 266° West 253 291 7,500  Level Cleveland Center
Mon 12:29:00 PM 42.3736 -84.0062 292° West  Level FlightAware Approximate
Mon 12:29:23 PM 42.1564 -83.6558 306° West 280 322 9,600  Level Cleveland Center
Mon 12:30:00 PM 42.4124 -84.1359 292° West  Level FlightAware Approximate
Mon 12:30:24 PM 42.2000 -83.7450 303° West 290 334 11,800  Level Cleveland Center
Mon 12:31:36 PM 42.2381 -83.8675 293° West 301 346 12,700 1,136 Climbing Cleveland Center
Mon 12:32:36 PM 42.2533 -83.9944 279° West 320 368 14,300 1,450 Climbing Cleveland Center
Mon 12:33:36 PM 42.2956 -84.1147 295° West 339 390 15,600 1,350 Climbing Cleveland Center
Mon 12:34:36 PM 42.3375 -84.2353 295° West 350 403 17,000 1,100 Climbing Cleveland Center
Mon 12:35:36 PM 42.3817 -84.3586 296° West 355 409 17,800 950 Climbing Cleveland Center
Mon 12:36:55 PM 42.4358 -84.5231 294° West 376 433 19,200 1,021 Climbing Chicago Center
Mon 12:37:57 PM 42.4392 -84.6633 272° West 374 430 20,200 919 Climbing Chicago Center
Mon 12:38:59 PM 42.4439 -84.8014 273° West 369 425 21,100 677 Climbing Chicago Center
Mon 12:40:01 PM 42.4472 -84.9394 272° West 367 422 21,600 484 Climbing Chicago Center
Mon 12:41:03 PM 42.4497 -85.0769 271° West 367 422 22,100 532 Climbing Chicago Center
Mon 12:42:05 PM 42.5061 -85.2214 298° West 383 441 22,700 528 Climbing Chicago Center
Mon 12:43:08 PM 42.5772 -85.3244 313° West 379 436 23,200 480 Climbing Chicago Center
Mon 12:44:10 PM 42.6503 -85.4306 313° West 384 442 23,700 484 Climbing Chicago Center
Mon 12:45:12 PM 42.7225 -85.5344 313° West 381 438 24,200 484 Climbing Chicago Center
Mon 12:46:14 PM 42.7947 -85.6378 314° West 379 436 24,700 484 Climbing Chicago Center
Mon 12:47:16 PM 42.8667 -85.7431 313° West 380 437 25,200 532 Climbing Chicago Center
Mon 12:48:18 PM 42.9539 -85.8700 313° West 384 442 25,800 532 Climbing Chicago Center
Mon 12:49:20 PM 43.0225 -85.9656 315° West 388 447 26,300 484 Climbing Chicago Center
Mon 12:50:22 PM 43.1047 -86.0961 311° West 403 464 26,800 532 Climbing Chicago Center
Mon 12:51:24 PM 43.1822 -86.2042 315° West 387 445 27,400 532 Climbing Chicago Center
Mon 12:52:26 PM 43.2547 -86.3119 313° West 384 442 27,900 290 Climbing Chicago Center
Mon 12:53:28 PM 43.3281 -86.4194 313° West 385 443 28,000 48 Climbing Chicago Center
Mon 12:54:31 PM 43.4031 -86.5317 313° West 400 460 28,000  Level Chicago Center
Mon 12:55:33 PM 43.4781 -86.6442 313° West 400 460 28,000  Level Chicago Center
Mon 12:56:35 PM 43.5689 -86.7792 313° West 402 463 28,000  Level Chicago Center
Mon 12:57:37 PM 43.6450 -86.8936 313° West 404 465 28,000  Level Chicago Center
Mon 12:58:07 PM 43.6750 -86.9378 313° West 400 460 28,000  Level Minneapolis Center
Mon 12:59:21 PM 43.7517 -87.0536 313° West 407 468 28,000  Level Minneapolis Center
Mon 01:00:23 PM 43.8589 -87.2156 313° West 409 471 28,000  Level Minneapolis Center
Mon 01:01:25 PM 43.9331 -87.3314 312° West 403 464 28,000  Level Minneapolis Center
Mon 01:02:27 PM 44.0081 -87.4467 312° West 403 464 28,000  Level Minneapolis Center
Mon 01:03:29 PM 44.0842 -87.5642 312° West 406 467 28,000  Level Minneapolis Center
Mon 01:04:31 PM 44.1592 -87.6803 312° West 406 467 28,000  Level Minneapolis Center
Mon 01:05:33 PM 44.2469 -87.8178 312° West 407 468 28,000  Level Minneapolis Center
Mon 01:06:36 PM 44.3222 -87.9342 312° West 406 467 28,000  Level Minneapolis Center
Mon 01:07:38 PM 44.3967 -88.0519 312° West 406 467 28,000  Level Minneapolis Center
Mon 01:08:40 PM 44.4717 -88.1711 311° West 408 470 28,000  Level Minneapolis Center
Mon 01:09:54 PM 44.5469 -88.2889 312° West 409 471 28,000  Level Minneapolis Center
Mon 01:10:56 PM 44.6367 -88.4297 312° West 415 478 28,000  Level Minneapolis Center
Mon 01:11:58 PM 44.7253 -88.5733 311° West 418 481 28,000  Level Minneapolis Center
Mon 01:13:00 PM 44.8011 -88.6947 311° West 416 479 28,000  Level Minneapolis Center
Mon 01:14:02 PM 44.8892 -88.8403 311° West 417 480 28,000  Level Minneapolis Center
Mon 01:15:04 PM 44.9647 -88.9636 311° West 416 479 28,000  Level Minneapolis Center
Mon 01:16:06 PM 45.0403 -89.0850 311° West 413 475 28,000  Level Minneapolis Center
Mon 01:17:08 PM 45.1111 -89.2031 310° West 414 476 28,000  Level Minneapolis Center
Mon 01:18:11 PM 45.1869 -89.3236 312° West 411 473 28,000  Level Minneapolis Center
Mon 01:19:13 PM 45.2761 -89.4717 311° West 409 471 28,000  Level Minneapolis Center
Mon 01:20:15 PM 45.3511 -89.5953 311° West 409 471 28,000  Level Minneapolis Center
Mon 01:21:17 PM 45.4253 -89.7208 310° West 411 473 28,000  Level Minneapolis Center
Mon 01:22:31 PM 45.5006 -89.8439 311° West 411 473 28,000 -574 Level Minneapolis Center
Mon 01:23:33 PM 45.5922 -89.9992 310° West 422 486 26,700 -1,015 Descending Minneapolis Center
Mon 01:24:47 PM 45.6675 -90.1264 310° West 419 482 25,700 -964 Descending Minneapolis Center
Mon 01:25:50 PM 45.7567 -90.2778 310° West 413 475 24,500 -1,152 Descending Minneapolis Center
Mon 01:26:52 PM 45.8444 -90.4272 310° West 407 468 23,300 -1,065 Descending Minneapolis Center
Mon 01:27:54 PM 45.9158 -90.5517 310° West 404 465 22,300 -968 Descending Minneapolis Center
Mon 01:28:56 PM 45.9886 -90.6742 311° West 402 463 21,300 -823 Descending Minneapolis Center
Mon 01:29:58 PM 46.0578 -90.7953 309° West 396 456 20,600 -581 Descending Minneapolis Center
Mon 01:31:00 PM 46.1247 -90.9106 310° West 383 441 20,100 -484 Descending Minneapolis Center
Mon 01:32:02 PM 46.1914 -91.0269 310° West 377 434 19,600 -1,161 Descending Minneapolis Center
Mon 01:33:04 PM 46.2689 -91.1644 309° West 372 428 17,700 -1,790 Descending Minneapolis Center
Mon 01:34:06 PM 46.3353 -91.2817 309° West 376 433 15,900 -1,790 Descending Minneapolis Center
Mon 01:35:08 PM 46.3994 -91.3956 309° West 367 422 14,000 -1,839 Descending Minneapolis Center
Mon 01:36:10 PM 46.4367 -91.5247 293° West 350 403 12,100 -1,694 Descending Minneapolis Center
Mon 01:37:12 PM 46.4703 -91.6353 294° West 322 371 10,500 -1,392 Descending Minneapolis Center
Mon 01:38:15 PM 46.5003 -91.7369 293° West 287 330 9,200 -1,632 Descending Minneapolis Center
Mon 01:39:17 PM 46.5394 -91.8486 297° West 266 306 7,100 -1,694 Descending Minneapolis Center
Mon 01:40:19 PM 46.5694 -91.9414 295° West 260 299 5,700 -1,016 Descending Minneapolis Center
Mon 01:41:21 PM 46.5978 -92.0289 295° West 250 288 5,000 -339 Descending Minneapolis Center
Mon 01:42:23 PM 46.6261 -92.1078 298° West 230 265 5,000  Level Minneapolis Center
Mon 01:43:25 PM 46.6544 -92.1856 298° West 222 255 5,000  Level Minneapolis Center
Mon 01:44:27 PM 46.6797 -92.2672 294° West 221 254 5,000 -194 Level Minneapolis Center
Mon 01:45:29 PM 46.7094 -92.3631 294° West 219 252 4,600 -484 Descending Minneapolis Center
Mon 01:46:31 PM 46.7331 -92.4414 294° West 215 247 4,000 -290 Descending Minneapolis Center
Mon 01:47:33 PM 46.7694 -92.5069 309° West 211 243 4,000 -48 Level Minneapolis Center
Mon 01:48:35 PM 46.8286 -92.4956 North 212 244 3,900 -339 Descending Minneapolis Center
Mon 01:49:37 PM 46.8497 -92.4231 67° East 204 235 3,300 -339 Descending Minneapolis Center
Mon 01:50:39 PM 46.8464 -92.3486 94° East 193 222 3,200 -97 Descending Minneapolis Center

Login

Don't have an account? Register now (free) for customized features, flight alerts, and more!